Kisarazu Airport Kisarazu JP
ICAO: RJTK
IATA:
Category: Medium
Scheduled Services:

Elevation: 10 ft
TransAlt. 0 ft.

Airport Communications:
TOKYO APP:119.1
TWR:126.2

RJTK Zoom In..

If you have problems with the map follow the link
https://www.worldairports.se/pages/airport.php?
ICAO=RJTK

Runways:

Location; RJTK
Day. 18 / Time. 01.28 Zulu
* Altimeter: 29.90
* Temperature: 26° c. 78.8°f.
* Wind from: 300° Speed 06 kn.
Dewpoint: 18° c.
Visibility: 10 km or more.
Clouds: Few 2500 ft.
Clouds: Scattered 3000 ft.

RJTK 180128Z 30006KT 9999 FEW025 SCT030 26/18 Q1012 RMK 1CU025 4CU030 A2990


Wind From 300°
Speed 06 kn.

 
 
jpsmedia.com for Web Design worldairports.se 2019   terms of use